sensor_id;sensor_type;location;lat;lon;timestamp;P1;durP1;ratioP1;P2;durP2;ratioP2
29878;SDS011;16752;53.364;-1.488;2023-06-14T00:00:36;14.30;;;5.47;;
29878;SDS011;16752;53.364;-1.488;2023-06-14T00:03:24;10.98;;;4.97;;
29878;SDS011;16752;53.364;-1.488;2023-06-14T00:06:09;11.88;;;4.85;;
29878;SDS011;16752;53.364;-1.488;2023-06-14T00:08:53;9.13;;;4.43;;
29878;SDS011;16752;53.364;-1.488;2023-06-14T00:11:38;15.88;;;4.82;;
29878;SDS011;16752;53.364;-1.488;2023-06-14T00:14:22;15.52;;;5.88;;
29878;SDS011;16752;53.364;-1.488;2023-06-14T00:17:06;10.30;;;5.45;;
29878;SDS011;16752;53.364;-1.488;2023-06-14T00:19:51;13.50;;;5.90;;
29878;SDS011;16752;53.364;-1.488;2023-06-14T00:22:36;13.80;;;5.47;;
29878;SDS011;16752;53.364;-1.488;2023-06-14T00:25:24;13.90;;;4.85;;
29878;SDS011;16752;53.364;-1.488;2023-06-14T00:28:11;14.38;;;5.85;;
29878;SDS011;16752;53.364;-1.488;2023-06-14T00:30:55;10.23;;;5.70;;
29878;SDS011;16752;53.364;-1.488;2023-06-14T00:33:39;9.25;;;5.15;;
29878;SDS011;16752;53.364;-1.488;2023-06-14T00:36:23;18.00;;;5.78;;
29878;SDS011;16752;53.364;-1.488;2023-06-14T00:39:07;7.82;;;4.70;;
29878;SDS011;16752;53.364;-1.488;2023-06-14T00:41:53;10.68;;;5.53;;
29878;SDS011;16752;53.364;-1.488;2023-06-14T00:44:37;10.65;;;6.05;;
29878;SDS011;16752;53.364;-1.488;2023-06-14T00:47:21;12.30;;;5.65;;
29878;SDS011;16752;53.364;-1.488;2023-06-14T00:50:09;9.52;;;5.35;;
29878;SDS011;16752;53.364;-1.488;2023-06-14T00:52:53;10.40;;;6.35;;
29878;SDS011;16752;53.364;-1.488;2023-06-14T00:55:37;14.20;;;6.13;;
29878;SDS011;16752;53.364;-1.488;2023-06-14T00:58:22;11.07;;;5.43;;
29878;SDS011;16752;53.364;-1.488;2023-06-14T01:01:06;12.07;;;5.75;;
29878;SDS011;16752;53.364;-1.488;2023-06-14T01:03:50;11.18;;;5.60;;
29878;SDS011;16752;53.364;-1.488;2023-06-14T01:09:41;7.82;;;5.20;;
29878;SDS011;16752;53.364;-1.488;2023-06-14T01:15:25;15.68;;;5.82;;
29878;SDS011;16752;53.364;-1.488;2023-06-14T01:18:11;8.68;;;5.43;;
29878;SDS011;16752;53.364;-1.488;2023-06-14T01:21:01;11.27;;;5.68;;
29878;SDS011;16752;53.364;-1.488;2023-06-14T01:23:50;9.95;;;6.50;;
29878;SDS011;16752;53.364;-1.488;2023-06-14T01:26:37;8.73;;;6.65;;
29878;SDS011;16752;53.364;-1.488;2023-06-14T01:29:22;8.43;;;5.68;;
29878;SDS011;16752;53.364;-1.488;2023-06-14T01:32:09;17.50;;;6.35;;
29878;SDS011;16752;53.364;-1.488;2023-06-14T01:34:54;8.50;;;5.47;;
29878;SDS011;16752;53.364;-1.488;2023-06-14T01:37:38;9.63;;;6.22;;
29878;SDS011;16752;53.364;-1.488;2023-06-14T01:40:24;10.73;;;6.53;;
29878;SDS011;16752;53.364;-1.488;2023-06-14T01:43:09;8.65;;;6.32;;
29878;SDS011;16752;53.364;-1.488;2023-06-14T01:45:55;13.82;;;6.30;;
29878;SDS011;16752;53.364;-1.488;2023-06-14T01:48:40;11.02;;;6.63;;
29878;SDS011;16752;53.364;-1.488;2023-06-14T01:51:25;15.35;;;6.22;;
29878;SDS011;16752;53.364;-1.488;2023-06-14T01:54:09;10.60;;;6.63;;
29878;SDS011;16752;53.364;-1.488;2023-06-14T01:56:53;10.50;;;6.15;;
29878;SDS011;16752;53.364;-1.488;2023-06-14T01:59:38;14.32;;;6.63;;
29878;SDS011;16752;53.364;-1.488;2023-06-14T02:02:22;9.25;;;5.45;;
29878;SDS011;16752;53.364;-1.488;2023-06-14T02:05:06;9.63;;;5.93;;
29878;SDS011;16752;53.364;-1.488;2023-06-14T02:07:51;8.48;;;5.22;;
29878;SDS011;16752;53.364;-1.488;2023-06-14T02:10:37;7.80;;;5.57;;
29878;SDS011;16752;53.364;-1.488;2023-06-14T02:13:21;11.00;;;6.28;;
29878;SDS011;16752;53.364;-1.488;2023-06-14T02:16:05;7.30;;;5.57;;
29878;SDS011;16752;53.364;-1.488;2023-06-14T02:18:50;7.40;;;5.63;;
29878;SDS011;16752;53.364;-1.488;2023-06-14T02:21:34;12.57;;;6.03;;
29878;SDS011;16752;53.364;-1.488;2023-06-14T02:24:18;9.27;;;6.55;;
29878;SDS011;16752;53.364;-1.488;2023-06-14T02:27:04;9.52;;;5.35;;
29878;SDS011;16752;53.364;-1.488;2023-06-14T02:29:48;8.02;;;6.22;;
29878;SDS011;16752;53.364;-1.488;2023-06-14T02:32:32;7.68;;;6.20;;
29878;SDS011;16752;53.364;-1.488;2023-06-14T02:35:19;12.02;;;5.88;;
29878;SDS011;16752;53.364;-1.488;2023-06-14T02:38:04;9.43;;;5.75;;
29878;SDS011;16752;53.364;-1.488;2023-06-14T02:40:48;13.90;;;6.05;;
29878;SDS011;16752;53.364;-1.488;2023-06-14T02:43:32;8.00;;;5.65;;
29878;SDS011;16752;53.364;-1.488;2023-06-14T02:46:16;7.88;;;5.15;;
29878;SDS011;16752;53.364;-1.488;2023-06-14T02:49:00;7.78;;;5.70;;
29878;SDS011;16752;53.364;-1.488;2023-06-14T02:51:44;7.80;;;5.13;;
29878;SDS011;16752;53.364;-1.488;2023-06-14T02:54:28;8.30;;;5.50;;
29878;SDS011;16752;53.364;-1.488;2023-06-14T02:57:12;10.68;;;5.68;;
29878;SDS011;16752;53.364;-1.488;2023-06-14T02:59:56;8.02;;;5.47;;
29878;SDS011;16752;53.364;-1.488;2023-06-14T03:02:40;8.15;;;5.30;;
29878;SDS011;16752;53.364;-1.488;2023-06-14T03:05:26;10.98;;;5.50;;
29878;SDS011;16752;53.364;-1.488;2023-06-14T03:08:12;8.73;;;5.90;;
29878;SDS011;16752;53.364;-1.488;2023-06-14T03:11:00;9.60;;;5.65;;
29878;SDS011;16752;53.364;-1.488;2023-06-14T03:13:45;8.30;;;6.00;;
29878;SDS011;16752;53.364;-1.488;2023-06-14T03:16:30;9.27;;;5.22;;
29878;SDS011;16752;53.364;-1.488;2023-06-14T03:19:15;9.63;;;5.38;;
29878;SDS011;16752;53.364;-1.488;2023-06-14T03:21:59;9.88;;;5.13;;
29878;SDS011;16752;53.364;-1.488;2023-06-14T03:24:42;10.65;;;5.00;;
29878;SDS011;16752;53.364;-1.488;2023-06-14T03:27:28;8.30;;;5.35;;
29878;SDS011;16752;53.364;-1.488;2023-06-14T03:30:13;16.05;;;5.53;;
29878;SDS011;16752;53.364;-1.488;2023-06-14T03:32:58;9.70;;;5.47;;
29878;SDS011;16752;53.364;-1.488;2023-06-14T03:35:44;14.07;;;5.85;;
29878;SDS011;16752;53.364;-1.488;2023-06-14T03:38:28;8.98;;;5.43;;
29878;SDS011;16752;53.364;-1.488;2023-06-14T03:41:12;9.18;;;5.90;;
29878;SDS011;16752;53.364;-1.488;2023-06-14T03:43:56;8.98;;;4.78;;
29878;SDS011;16752;53.364;-1.488;2023-06-14T03:46:40;9.70;;;5.18;;
29878;SDS011;16752;53.364;-1.488;2023-06-14T03:49:24;8.15;;;5.38;;
29878;SDS011;16752;53.364;-1.488;2023-06-14T03:52:09;8.25;;;5.40;;
29878;SDS011;16752;53.364;-1.488;2023-06-14T03:54:53;9.88;;;4.90;;
29878;SDS011;16752;53.364;-1.488;2023-06-14T03:57:37;6.70;;;5.05;;
29878;SDS011;16752;53.364;-1.488;2023-06-14T04:00:21;8.10;;;5.18;;
29878;SDS011;16752;53.364;-1.488;2023-06-14T04:03:05;8.15;;;4.78;;
29878;SDS011;16752;53.364;-1.488;2023-06-14T04:05:49;8.07;;;5.75;;
29878;SDS011;16752;53.364;-1.488;2023-06-14T04:08:33;7.15;;;4.38;;
29878;SDS011;16752;53.364;-1.488;2023-06-14T04:11:18;9.30;;;5.55;;
29878;SDS011;16752;53.364;-1.488;2023-06-14T04:14:03;12.68;;;5.45;;
29878;SDS011;16752;53.364;-1.488;2023-06-14T04:16:47;12.45;;;5.45;;
29878;SDS011;16752;53.364;-1.488;2023-06-14T04:19:32;9.27;;;4.80;;
29878;SDS011;16752;53.364;-1.488;2023-06-14T04:22:16;11.32;;;5.15;;
29878;SDS011;16752;53.364;-1.488;2023-06-14T04:25:00;6.82;;;4.22;;
29878;SDS011;16752;53.364;-1.488;2023-06-14T04:27:44;15.63;;;4.70;;
29878;SDS011;16752;53.364;-1.488;2023-06-14T04:30:28;12.38;;;5.00;;
29878;SDS011;16752;53.364;-1.488;2023-06-14T04:33:15;5.60;;;4.47;;
29878;SDS011;16752;53.364;-1.488;2023-06-14T04:36:01;7.47;;;4.50;;
29878;SDS011;16752;53.364;-1.488;2023-06-14T04:38:45;9.45;;;4.75;;
29878;SDS011;16752;53.364;-1.488;2023-06-14T04:41:30;7.38;;;4.72;;
29878;SDS011;16752;53.364;-1.488;2023-06-14T04:44:15;8.70;;;4.57;;
29878;SDS011;16752;53.364;-1.488;2023-06-14T04:47:00;8.88;;;4.65;;
29878;SDS011;16752;53.364;-1.488;2023-06-14T04:49:44;9.05;;;5.00;;
29878;SDS011;16752;53.364;-1.488;2023-06-14T04:52:28;10.55;;;4.85;;
29878;SDS011;16752;53.364;-1.488;2023-06-14T04:55:14;9.52;;;4.75;;
29878;SDS011;16752;53.364;-1.488;2023-06-14T04:57:58;7.60;;;4.30;;
29878;SDS011;16752;53.364;-1.488;2023-06-14T05:00:42;9.00;;;4.82;;
29878;SDS011;16752;53.364;-1.488;2023-06-14T05:03:26;10.95;;;4.85;;
29878;SDS011;16752;53.364;-1.488;2023-06-14T05:06:11;6.65;;;4.25;;
29878;SDS011;16752;53.364;-1.488;2023-06-14T05:08:55;8.27;;;4.85;;
29878;SDS011;16752;53.364;-1.488;2023-06-14T05:11:39;13.02;;;4.65;;
29878;SDS011;16752;53.364;-1.488;2023-06-14T05:14:23;7.28;;;4.40;;
29878;SDS011;16752;53.364;-1.488;2023-06-14T05:17:09;7.82;;;4.75;;
29878;SDS011;16752;53.364;-1.488;2023-06-14T05:19:53;8.40;;;4.55;;
29878;SDS011;16752;53.364;-1.488;2023-06-14T05:22:39;5.13;;;4.47;;
29878;SDS011;16752;53.364;-1.488;2023-06-14T05:25:23;8.93;;;4.63;;
29878;SDS011;16752;53.364;-1.488;2023-06-14T05:28:08;12.73;;;5.03;;
29878;SDS011;16752;53.364;-1.488;2023-06-14T05:30:51;8.40;;;4.15;;
29878;SDS011;16752;53.364;-1.488;2023-06-14T05:33:35;8.68;;;5.10;;
29878;SDS011;16752;53.364;-1.488;2023-06-14T05:36:19;7.95;;;4.32;;
29878;SDS011;16752;53.364;-1.488;2023-06-14T05:39:05;6.10;;;4.45;;
29878;SDS011;16752;53.364;-1.488;2023-06-14T05:41:50;8.23;;;4.38;;
29878;SDS011;16752;53.364;-1.488;2023-06-14T05:44:34;9.23;;;4.60;;
29878;SDS011;16752;53.364;-1.488;2023-06-14T05:47:17;9.30;;;5.00;;
29878;SDS011;16752;53.364;-1.488;2023-06-14T05:50:01;6.90;;;4.38;;
29878;SDS011;16752;53.364;-1.488;2023-06-14T05:52:46;9.40;;;4.63;;
29878;SDS011;16752;53.364;-1.488;2023-06-14T05:55:30;5.78;;;4.00;;
29878;SDS011;16752;53.364;-1.488;2023-06-14T05:58:14;5.85;;;4.45;;
29878;SDS011;16752;53.364;-1.488;2023-06-14T06:00:58;5.63;;;4.05;;
29878;SDS011;16752;53.364;-1.488;2023-06-14T06:03:42;5.35;;;3.53;;
29878;SDS011;16752;53.364;-1.488;2023-06-14T06:06:29;11.98;;;4.43;;
29878;SDS011;16752;53.364;-1.488;2023-06-14T06:09:13;6.40;;;4.15;;
29878;SDS011;16752;53.364;-1.488;2023-06-14T06:11:58;8.63;;;4.30;;
29878;SDS011;16752;53.364;-1.488;2023-06-14T06:14:42;6.65;;;4.65;;
29878;SDS011;16752;53.364;-1.488;2023-06-14T06:17:26;5.65;;;3.92;;
29878;SDS011;16752;53.364;-1.488;2023-06-14T06:20:10;7.05;;;3.88;;
29878;SDS011;16752;53.364;-1.488;2023-06-14T06:22:58;6.35;;;4.25;;
29878;SDS011;16752;53.364;-1.488;2023-06-14T06:25:42;8.70;;;4.15;;
29878;SDS011;16752;53.364;-1.488;2023-06-14T06:28:27;6.63;;;4.20;;
29878;SDS011;16752;53.364;-1.488;2023-06-14T06:31:11;9.02;;;4.50;;
29878;SDS011;16752;53.364;-1.488;2023-06-14T06:34:02;10.15;;;4.68;;
29878;SDS011;16752;53.364;-1.488;2023-06-14T06:36:46;10.48;;;4.38;;
29878;SDS011;16752;53.364;-1.488;2023-06-14T06:39:30;7.13;;;4.30;;
29878;SDS011;16752;53.364;-1.488;2023-06-14T06:42:14;6.65;;;4.60;;
29878;SDS011;16752;53.364;-1.488;2023-06-14T06:44:59;5.93;;;3.85;;
29878;SDS011;16752;53.364;-1.488;2023-06-14T06:47:43;7.20;;;3.72;;
29878;SDS011;16752;53.364;-1.488;2023-06-14T06:50:27;4.43;;;3.45;;
29878;SDS011;16752;53.364;-1.488;2023-06-14T06:53:11;9.48;;;5.05;;
29878;SDS011;16752;53.364;-1.488;2023-06-14T06:55:55;8.20;;;4.75;;
29878;SDS011;16752;53.364;-1.488;2023-06-14T06:58:40;12.57;;;4.80;;
29878;SDS011;16752;53.364;-1.488;2023-06-14T07:01:27;8.60;;;3.97;;
29878;SDS011;16752;53.364;-1.488;2023-06-14T07:04:30;9.75;;;3.78;;
29878;SDS011;16752;53.364;-1.488;2023-06-14T07:07:14;6.65;;;4.05;;
29878;SDS011;16752;53.364;-1.488;2023-06-14T07:09:59;10.40;;;4.32;;
29878;SDS011;16752;53.364;-1.488;2023-06-14T07:12:43;9.10;;;4.55;;
29878;SDS011;16752;53.364;-1.488;2023-06-14T07:15:28;7.60;;;4.55;;
29878;SDS011;16752;53.364;-1.488;2023-06-14T07:18:20;8.80;;;4.45;;
29878;SDS011;16752;53.364;-1.488;2023-06-14T07:21:06;11.05;;;4.45;;
29878;SDS011;16752;53.364;-1.488;2023-06-14T07:23:52;12.52;;;5.05;;
29878;SDS011;16752;53.364;-1.488;2023-06-14T07:29:35;10.02;;;4.00;;
29878;SDS011;16752;53.364;-1.488;2023-06-14T07:32:20;8.07;;;4.30;;
29878;SDS011;16752;53.364;-1.488;2023-06-14T07:35:04;10.82;;;4.88;;
29878;SDS011;16752;53.364;-1.488;2023-06-14T07:37:51;8.32;;;4.50;;
29878;SDS011;16752;53.364;-1.488;2023-06-14T07:40:35;8.60;;;4.78;;
29878;SDS011;16752;53.364;-1.488;2023-06-14T07:43:25;5.07;;;3.63;;
29878;SDS011;16752;53.364;-1.488;2023-06-14T07:46:09;13.65;;;4.30;;
29878;SDS011;16752;53.364;-1.488;2023-06-14T07:49:01;10.52;;;4.18;;
29878;SDS011;16752;53.364;-1.488;2023-06-14T07:51:53;9.60;;;4.00;;
29878;SDS011;16752;53.364;-1.488;2023-06-14T07:54:37;11.27;;;4.50;;
29878;SDS011;16752;53.364;-1.488;2023-06-14T07:57:21;10.82;;;3.90;;
29878;SDS011;16752;53.364;-1.488;2023-06-14T08:00:05;8.55;;;4.38;;
29878;SDS011;16752;53.364;-1.488;2023-06-14T08:02:50;9.38;;;4.88;;
29878;SDS011;16752;53.364;-1.488;2023-06-14T08:05:35;14.07;;;5.40;;
29878;SDS011;16752;53.364;-1.488;2023-06-14T08:08:19;13.23;;;4.82;;
29878;SDS011;16752;53.364;-1.488;2023-06-14T08:11:04;12.15;;;6.05;;
29878;SDS011;16752;53.364;-1.488;2023-06-14T08:13:58;13.52;;;5.57;;
29878;SDS011;16752;53.364;-1.488;2023-06-14T08:17:00;12.32;;;5.65;;
29878;SDS011;16752;53.364;-1.488;2023-06-14T08:19:50;15.93;;;5.60;;
29878;SDS011;16752;53.364;-1.488;2023-06-14T08:22:56;11.02;;;4.75;;
29878;SDS011;16752;53.364;-1.488;2023-06-14T08:25:45;14.48;;;4.65;;
29878;SDS011;16752;53.364;-1.488;2023-06-14T08:28:58;10.90;;;4.13;;
29878;SDS011;16752;53.364;-1.488;2023-06-14T08:32:15;16.83;;;6.93;;
29878;SDS011;16752;53.364;-1.488;2023-06-14T08:35:11;13.80;;;5.28;;
29878;SDS011;16752;53.364;-1.488;2023-06-14T08:38:09;11.98;;;4.35;;
29878;SDS011;16752;53.364;-1.488;2023-06-14T08:40:57;9.98;;;4.38;;
29878;SDS011;16752;53.364;-1.488;2023-06-14T08:43:45;16.80;;;4.65;;
29878;SDS011;16752;53.364;-1.488;2023-06-14T08:46:32;15.38;;;5.50;;
29878;SDS011;16752;53.364;-1.488;2023-06-14T08:49:30;12.50;;;5.00;;
29878;SDS011;16752;53.364;-1.488;2023-06-14T08:52:45;17.10;;;5.00;;
29878;SDS011;16752;53.364;-1.488;2023-06-14T08:55:47;11.40;;;5.25;;
29878;SDS011;16752;53.364;-1.488;2023-06-14T08:58:32;16.63;;;4.70;;
29878;SDS011;16752;53.364;-1.488;2023-06-14T09:01:20;14.35;;;5.15;;
29878;SDS011;16752;53.364;-1.488;2023-06-14T09:04:07;15.70;;;4.95;;
29878;SDS011;16752;53.364;-1.488;2023-06-14T09:06:52;12.90;;;3.60;;
29878;SDS011;16752;53.364;-1.488;2023-06-14T09:10:04;11.50;;;4.57;;
29878;SDS011;16752;53.364;-1.488;2023-06-14T09:16:11;9.43;;;3.95;;
29878;SDS011;16752;53.364;-1.488;2023-06-14T09:21:42;11.75;;;4.57;;
29878;SDS011;16752;53.364;-1.488;2023-06-14T09:24:45;12.73;;;3.90;;
29878;SDS011;16752;53.364;-1.488;2023-06-14T09:33:30;13.20;;;4.35;;
29878;SDS011;16752;53.364;-1.488;2023-06-14T09:36:25;11.30;;;3.70;;
29878;SDS011;16752;53.364;-1.488;2023-06-14T09:39:18;10.48;;;3.88;;
29878;SDS011;16752;53.364;-1.488;2023-06-14T09:44:55;7.10;;;3.90;;
29878;SDS011;16752;53.364;-1.488;2023-06-14T09:50:21;11.63;;;4.00;;
29878;SDS011;16752;53.364;-1.488;2023-06-14T09:53:14;8.88;;;3.38;;
29878;SDS011;16752;53.364;-1.488;2023-06-14T09:56:00;10.52;;;3.30;;
29878;SDS011;16752;53.364;-1.488;2023-06-14T09:58:45;7.07;;;3.08;;
29878;SDS011;16752;53.364;-1.488;2023-06-14T10:01:30;10.45;;;3.65;;
29878;SDS011;16752;53.364;-1.488;2023-06-14T10:04:18;7.68;;;3.45;;
29878;SDS011;16752;53.364;-1.488;2023-06-14T10:07:06;7.95;;;2.80;;
29878;SDS011;16752;53.364;-1.488;2023-06-14T10:22:32;8.15;;;2.88;;
29878;SDS011;16752;53.364;-1.488;2023-06-14T10:25:33;8.02;;;3.00;;
29878;SDS011;16752;53.364;-1.488;2023-06-14T10:28:20;7.57;;;3.10;;
29878;SDS011;16752;53.364;-1.488;2023-06-14T10:35:00;6.78;;;2.88;;
29878;SDS011;16752;53.364;-1.488;2023-06-14T10:37:51;5.13;;;3.03;;
29878;SDS011;16752;53.364;-1.488;2023-06-14T10:40:43;5.40;;;2.30;;
29878;SDS011;16752;53.364;-1.488;2023-06-14T10:43:36;6.43;;;2.75;;
29878;SDS011;16752;53.364;-1.488;2023-06-14T10:46:20;7.45;;;2.80;;
29878;SDS011;16752;53.364;-1.488;2023-06-14T10:52:07;6.60;;;2.65;;
29878;SDS011;16752;53.364;-1.488;2023-06-14T10:55:12;6.75;;;2.85;;
29878;SDS011;16752;53.364;-1.488;2023-06-14T10:58:11;7.97;;;2.90;;
29878;SDS011;16752;53.364;-1.488;2023-06-14T11:00:55;3.45;;;2.50;;
29878;SDS011;16752;53.364;-1.488;2023-06-14T11:06:50;4.72;;;2.28;;
29878;SDS011;16752;53.364;-1.488;2023-06-14T11:10:18;7.32;;;2.65;;
29878;SDS011;16752;53.364;-1.488;2023-06-14T11:13:34;8.10;;;3.17;;
29878;SDS011;16752;53.364;-1.488;2023-06-14T11:16:28;6.57;;;3.22;;
29878;SDS011;16752;53.364;-1.488;2023-06-14T11:22:16;7.00;;;3.25;;
29878;SDS011;16752;53.364;-1.488;2023-06-14T11:25:19;7.68;;;3.13;;
29878;SDS011;16752;53.364;-1.488;2023-06-14T11:28:04;8.20;;;2.70;;
29878;SDS011;16752;53.364;-1.488;2023-06-14T11:34:24;18.77;;;3.08;;
29878;SDS011;16752;53.364;-1.488;2023-06-14T11:37:08;11.05;;;3.10;;
29878;SDS011;16752;53.364;-1.488;2023-06-14T11:39:52;19.38;;;3.25;;
29878;SDS011;16752;53.364;-1.488;2023-06-14T11:42:42;8.85;;;3.08;;
29878;SDS011;16752;53.364;-1.488;2023-06-14T11:45:26;6.88;;;2.83;;
29878;SDS011;16752;53.364;-1.488;2023-06-14T11:48:14;5.63;;;2.95;;
29878;SDS011;16752;53.364;-1.488;2023-06-14T11:51:01;5.80;;;3.38;;
29878;SDS011;16752;53.364;-1.488;2023-06-14T11:53:45;7.38;;;3.13;;
29878;SDS011;16752;53.364;-1.488;2023-06-14T11:56:30;9.60;;;3.35;;
29878;SDS011;16752;53.364;-1.488;2023-06-14T11:59:15;6.03;;;2.90;;
29878;SDS011;16752;53.364;-1.488;2023-06-14T12:01:59;9.40;;;2.92;;
29878;SDS011;16752;53.364;-1.488;2023-06-14T12:04:43;7.55;;;2.78;;
29878;SDS011;16752;53.364;-1.488;2023-06-14T12:10:42;5.22;;;2.90;;
29878;SDS011;16752;53.364;-1.488;2023-06-14T12:13:27;8.90;;;2.95;;
29878;SDS011;16752;53.364;-1.488;2023-06-14T12:16:11;10.85;;;2.88;;
29878;SDS011;16752;53.364;-1.488;2023-06-14T12:22:09;7.55;;;3.13;;
29878;SDS011;16752;53.364;-1.488;2023-06-14T12:24:57;4.82;;;2.45;;
29878;SDS011;16752;53.364;-1.488;2023-06-14T12:27:41;9.20;;;2.83;;
29878;SDS011;16752;53.364;-1.488;2023-06-14T12:30:26;7.38;;;3.60;;
29878;SDS011;16752;53.364;-1.488;2023-06-14T12:33:10;5.25;;;2.53;;
29878;SDS011;16752;53.364;-1.488;2023-06-14T12:42:34;4.57;;;2.80;;
29878;SDS011;16752;53.364;-1.488;2023-06-14T12:45:18;4.45;;;2.45;;
29878;SDS011;16752;53.364;-1.488;2023-06-14T12:51:00;4.43;;;2.60;;
29878;SDS011;16752;53.364;-1.488;2023-06-14T12:57:35;6.68;;;2.83;;
29878;SDS011;16752;53.364;-1.488;2023-06-14T13:00:26;5.95;;;2.58;;
29878;SDS011;16752;53.364;-1.488;2023-06-14T13:23:56;7.20;;;2.92;;
29878;SDS011;16752;53.364;-1.488;2023-06-14T13:26:43;6.82;;;2.88;;
29878;SDS011;16752;53.364;-1.488;2023-06-14T13:35:45;10.60;;;2.50;;
29878;SDS011;16752;53.364;-1.488;2023-06-14T13:38:31;3.67;;;2.53;;
29878;SDS011;16752;53.364;-1.488;2023-06-14T13:41:15;4.93;;;2.53;;
29878;SDS011;16752;53.364;-1.488;2023-06-14T13:44:00;7.05;;;2.95;;
29878;SDS011;16752;53.364;-1.488;2023-06-14T13:46:45;6.20;;;2.83;;
29878;SDS011;16752;53.364;-1.488;2023-06-14T13:49:29;5.57;;;2.65;;
29878;SDS011;16752;53.364;-1.488;2023-06-14T13:52:25;3.70;;;2.50;;
29878;SDS011;16752;53.364;-1.488;2023-06-14T13:55:39;4.28;;;2.53;;
29878;SDS011;16752;53.364;-1.488;2023-06-14T13:58:23;5.85;;;2.63;;
29878;SDS011;16752;53.364;-1.488;2023-06-14T14:01:08;5.32;;;2.55;;
29878;SDS011;16752;53.364;-1.488;2023-06-14T14:03:54;7.20;;;2.80;;
29878;SDS011;16752;53.364;-1.488;2023-06-14T14:09:53;7.43;;;2.85;;
29878;SDS011;16752;53.364;-1.488;2023-06-14T14:12:44;6.22;;;2.72;;
29878;SDS011;16752;53.364;-1.488;2023-06-14T14:15:42;5.50;;;2.47;;
29878;SDS011;16752;53.364;-1.488;2023-06-14T14:19:04;4.38;;;2.42;;
29878;SDS011;16752;53.364;-1.488;2023-06-14T14:22:05;5.68;;;2.35;;
29878;SDS011;16752;53.364;-1.488;2023-06-14T14:25:00;5.93;;;2.15;;
29878;SDS011;16752;53.364;-1.488;2023-06-14T14:27:44;4.25;;;1.88;;
29878;SDS011;16752;53.364;-1.488;2023-06-14T14:30:28;11.00;;;2.70;;
29878;SDS011;16752;53.364;-1.488;2023-06-14T14:33:22;5.70;;;2.23;;
29878;SDS011;16752;53.364;-1.488;2023-06-14T14:36:24;13.15;;;2.63;;
29878;SDS011;16752;53.364;-1.488;2023-06-14T14:52:01;5.22;;;2.25;;
29878;SDS011;16752;53.364;-1.488;2023-06-14T14:54:58;6.00;;;2.28;;
29878;SDS011;16752;53.364;-1.488;2023-06-14T14:57:42;4.03;;;2.25;;
29878;SDS011;16752;53.364;-1.488;2023-06-14T15:00:27;3.72;;;1.92;;
29878;SDS011;16752;53.364;-1.488;2023-06-14T15:03:11;3.85;;;2.15;;
29878;SDS011;16752;53.364;-1.488;2023-06-14T15:05:56;6.95;;;2.53;;
29878;SDS011;16752;53.364;-1.488;2023-06-14T15:08:40;6.72;;;2.10;;
29878;SDS011;16752;53.364;-1.488;2023-06-14T15:11:24;5.82;;;2.13;;
29878;SDS011;16752;53.364;-1.488;2023-06-14T15:14:07;7.50;;;1.48;;
29878;SDS011;16752;53.364;-1.488;2023-06-14T15:16:54;5.45;;;1.67;;
29878;SDS011;16752;53.364;-1.488;2023-06-14T15:19:40;3.75;;;1.80;;
29878;SDS011;16752;53.364;-1.488;2023-06-14T15:22:24;4.38;;;2.15;;
29878;SDS011;16752;53.364;-1.488;2023-06-14T15:25:08;6.25;;;1.98;;
29878;SDS011;16752;53.364;-1.488;2023-06-14T15:28:13;4.95;;;1.85;;
29878;SDS011;16752;53.364;-1.488;2023-06-14T15:31:03;7.90;;;1.98;;
29878;SDS011;16752;53.364;-1.488;2023-06-14T15:33:48;5.82;;;1.75;;
29878;SDS011;16752;53.364;-1.488;2023-06-14T15:36:38;3.42;;;1.77;;
29878;SDS011;16752;53.364;-1.488;2023-06-14T15:39:23;4.13;;;1.88;;
29878;SDS011;16752;53.364;-1.488;2023-06-14T15:42:08;4.13;;;1.90;;
29878;SDS011;16752;53.364;-1.488;2023-06-14T15:44:53;2.83;;;1.80;;
29878;SDS011;16752;53.364;-1.488;2023-06-14T15:47:38;6.47;;;1.83;;
29878;SDS011;16752;53.364;-1.488;2023-06-14T15:50:28;6.15;;;1.83;;
29878;SDS011;16752;53.364;-1.488;2023-06-14T15:53:16;3.47;;;1.60;;
29878;SDS011;16752;53.364;-1.488;2023-06-14T15:56:00;8.07;;;1.77;;
29878;SDS011;16752;53.364;-1.488;2023-06-14T15:58:45;4.47;;;1.85;;
29878;SDS011;16752;53.364;-1.488;2023-06-14T16:01:29;3.03;;;1.65;;
29878;SDS011;16752;53.364;-1.488;2023-06-14T16:04:13;4.22;;;1.90;;
29878;SDS011;16752;53.364;-1.488;2023-06-14T16:06:58;4.00;;;1.90;;
29878;SDS011;16752;53.364;-1.488;2023-06-14T16:09:42;5.05;;;1.50;;
29878;SDS011;16752;53.364;-1.488;2023-06-14T16:12:35;2.05;;;1.60;;
29878;SDS011;16752;53.364;-1.488;2023-06-14T16:15:19;2.97;;;1.83;;
29878;SDS011;16752;53.364;-1.488;2023-06-14T16:18:03;6.13;;;1.67;;
29878;SDS011;16752;53.364;-1.488;2023-06-14T16:20:47;4.43;;;1.50;;
29878;SDS011;16752;53.364;-1.488;2023-06-14T16:23:38;2.63;;;1.67;;
29878;SDS011;16752;53.364;-1.488;2023-06-14T16:26:23;1.92;;;1.65;;
29878;SDS011;16752;53.364;-1.488;2023-06-14T16:32:24;9.10;;;1.92;;
29878;SDS011;16752;53.364;-1.488;2023-06-14T16:35:09;2.97;;;1.98;;
29878;SDS011;16752;53.364;-1.488;2023-06-14T16:37:58;6.47;;;2.40;;
29878;SDS011;16752;53.364;-1.488;2023-06-14T16:40:45;7.22;;;2.03;;
29878;SDS011;16752;53.364;-1.488;2023-06-14T16:43:31;5.45;;;1.70;;
29878;SDS011;16752;53.364;-1.488;2023-06-14T16:47:03;3.00;;;1.77;;
29878;SDS011;16752;53.364;-1.488;2023-06-14T16:49:50;6.38;;;2.00;;
29878;SDS011;16752;53.364;-1.488;2023-06-14T16:52:34;4.70;;;2.13;;
29878;SDS011;16752;53.364;-1.488;2023-06-14T16:55:22;5.85;;;2.15;;
29878;SDS011;16752;53.364;-1.488;2023-06-14T16:58:06;5.85;;;2.17;;
29878;SDS011;16752;53.364;-1.488;2023-06-14T17:00:56;4.90;;;1.88;;
29878;SDS011;16752;53.364;-1.488;2023-06-14T17:03:40;3.53;;;1.52;;
29878;SDS011;16752;53.364;-1.488;2023-06-14T17:06:24;4.35;;;1.45;;
29878;SDS011;16752;53.364;-1.488;2023-06-14T17:12:02;5.18;;;1.88;;
29878;SDS011;16752;53.364;-1.488;2023-06-14T17:14:46;2.50;;;1.80;;
29878;SDS011;16752;53.364;-1.488;2023-06-14T17:17:32;5.38;;;1.92;;
29878;SDS011;16752;53.364;-1.488;2023-06-14T17:20:16;4.63;;;2.15;;
29878;SDS011;16752;53.364;-1.488;2023-06-14T17:23:00;3.92;;;2.10;;
29878;SDS011;16752;53.364;-1.488;2023-06-14T17:25:45;1.65;;;1.50;;
29878;SDS011;16752;53.364;-1.488;2023-06-14T17:28:29;3.38;;;1.52;;
29878;SDS011;16752;53.364;-1.488;2023-06-14T17:31:16;3.05;;;1.80;;
29878;SDS011;16752;53.364;-1.488;2023-06-14T17:34:03;3.65;;;2.53;;
29878;SDS011;16752;53.364;-1.488;2023-06-14T17:36:47;5.60;;;2.50;;
29878;SDS011;16752;53.364;-1.488;2023-06-14T17:39:34;6.65;;;2.00;;
29878;SDS011;16752;53.364;-1.488;2023-06-14T17:42:19;4.15;;;2.05;;
29878;SDS011;16752;53.364;-1.488;2023-06-14T17:45:06;9.00;;;2.38;;
29878;SDS011;16752;53.364;-1.488;2023-06-14T17:47:50;4.35;;;2.50;;
29878;SDS011;16752;53.364;-1.488;2023-06-14T17:50:34;7.47;;;2.47;;
29878;SDS011;16752;53.364;-1.488;2023-06-14T17:53:22;4.43;;;1.48;;
29878;SDS011;16752;53.364;-1.488;2023-06-14T17:56:06;5.38;;;2.58;;
29878;SDS011;16752;53.364;-1.488;2023-06-14T17:58:50;6.50;;;3.35;;
29878;SDS011;16752;53.364;-1.488;2023-06-14T18:01:41;5.75;;;2.60;;
29878;SDS011;16752;53.364;-1.488;2023-06-14T18:04:25;6.60;;;2.22;;
29878;SDS011;16752;53.364;-1.488;2023-06-14T18:07:10;15.73;;;3.28;;
29878;SDS011;16752;53.364;-1.488;2023-06-14T18:09:55;4.60;;;2.42;;
29878;SDS011;16752;53.364;-1.488;2023-06-14T18:12:38;5.18;;;2.30;;
29878;SDS011;16752;53.364;-1.488;2023-06-14T18:15:24;4.15;;;2.60;;
29878;SDS011;16752;53.364;-1.488;2023-06-14T18:18:08;6.28;;;2.08;;
29878;SDS011;16752;53.364;-1.488;2023-06-14T18:20:52;4.38;;;2.50;;
29878;SDS011;16752;53.364;-1.488;2023-06-14T18:23:36;7.15;;;2.20;;
29878;SDS011;16752;53.364;-1.488;2023-06-14T18:26:23;7.22;;;2.60;;
29878;SDS011;16752;53.364;-1.488;2023-06-14T18:29:09;4.25;;;2.63;;
29878;SDS011;16752;53.364;-1.488;2023-06-14T18:31:53;4.75;;;2.55;;